Time;durP1;ratioP1;P1;durP2;ratioP2;P2;SDS_P1;SDS_P2;PMS_P1;PMS_P2;Temp;Humidity;BMP_temperature;BMP_pressure;BME280_temperature;BME280_humidity;BME280_pressure;Samples;Min_cycle;Max_cycle;Signal;HPM_P1;HPM_P2
2022/08/24 00:02:03;;;;;;;8.98;3.05;;;;;;;;;;5009782;28;20026;-77
2022/08/24 00:04:28;;;;;;;5.65;1.90;;;;;;;;;;5027236;28;20055;-77
2022/08/24 00:06:53;;;;;;;6.97;2.17;;;;;;;;;;5031100;28;20128;-77
2022/08/24 00:09:19;;;;;;;4.10;2.30;;;;;;;;;;5025869;28;20039;-76
2022/08/24 00:11:44;;;;;;;4.97;2.37;;;;;;;;;;5025855;28;20029;-75
2022/08/24 00:14:10;;;;;;;8.07;2.60;;;;;;;;;;5026265;28;20037;-75
2022/08/24 00:16:36;;;;;;;;;;;;;;;;;;5038230;28;20026;-77
2022/08/24 00:19:01;;;;;;;;;;;;;;;;;;5026608;28;19928;-77
2022/08/24 00:21:26;;;;;;;6.57;2.85;;;;;;;;;;5017955;28;19905;-78
2022/08/24 00:23:51;;;;;;;6.47;2.30;;;;;;;;;;5027380;28;20055;-77
2022/08/24 00:26:17;;;;;;;8.13;2.50;;;;;;;;;;5026055;28;20028;-76
2022/08/24 00:28:42;;;;;;;7.80;2.30;;;;;;;;;;5025450;28;20029;-76
2022/08/24 00:31:07;;;;;;;4.10;2.40;;;;;;;;;;5026138;28;20040;-78
2022/08/24 00:33:33;;;;;;;4.23;1.97;;;;;;;;;;5010507;28;20120;-76
2022/08/24 00:35:58;;;;;;;7.70;2.20;;;;;;;;;;5019005;28;20049;-78
2022/08/24 00:38:24;;;;;;;7.70;2.50;;;;;;;;;;5009377;28;20577;-77
2022/08/24 00:40:49;;;;;;;4.33;2.17;;;;;;;;;;5023242;28;20057;-76
2022/08/24 00:43:18;;;;;;;8.57;2.13;;;;;;;;;;5027930;28;20450;-74
2022/08/24 00:45:45;;;;;;;5.57;2.33;;;;;;;;;;5010077;28;20192;-76
2022/08/24 00:48:13;;;;;;;5.90;2.10;;;;;;;;;;5032390;28;20033;-78
2022/08/24 00:50:49;;;;;;;8.38;2.30;;;;;;;;;;5034241;28;20067;-78
2022/08/24 00:53:18;;;;;;;5.75;2.00;;;;;;;;;;5035747;28;20037;-78
2022/08/24 00:55:48;;;;;;;6.18;2.50;;;;;;;;;;5028668;28;20028;-78
2022/08/24 00:58:17;;;;;;;5.03;2.10;;;;;;;;;;5023404;28;20050;-75
2022/08/24 01:00:43;;;;;;;4.53;2.00;;;;;;;;;;5035790;28;20031;-77
2022/08/24 01:03:09;;;;;;;7.50;2.03;;;;;;;;;;5022307;28;20056;-75
2022/08/24 01:05:36;;;;;;;6.38;2.28;;;;;;;;;;5031353;28;20037;-76
2022/08/24 01:08:02;;;;;;;10.45;2.33;;;;;;;;;;5014746;28;20033;-76
2022/08/24 01:10:29;;;;;;;6.65;3.28;;;;;;;;;;5032367;28;20506;-77
2022/08/24 01:13:00;;;;;;;4.25;1.70;;;;;;;;;;5031400;28;20459;-78
2022/08/24 01:15:26;;;;;;;4.22;2.30;;;;;;;;;;5014781;28;20040;-77
2022/08/24 01:20:36;;;;;;;5.05;2.40;;;;;;;;;;5032215;28;20055;-78
2022/08/24 01:23:07;;;;;;;12.48;2.42;;;;;;;;;;5012964;28;20946;-78
2022/08/24 01:25:34;;;;;;;10.52;2.47;;;;;;;;;;5028323;28;20037;-76
2022/08/24 01:28:05;;;;;;;6.10;2.15;;;;;;;;;;5028204;28;20021;-76
2022/08/24 01:30:31;;;;;;;5.03;2.05;;;;;;;;;;5011130;28;20430;-76
2022/08/24 01:32:58;;;;;;;3.72;1.80;;;;;;;;;;5019617;28;20022;-76
2022/08/24 01:35:23;;;;;;;5.55;2.50;;;;;;;;;;5019515;28;20117;-76
2022/08/24 01:37:49;;;;;;;3.97;1.90;;;;;;;;;;5008199;28;20121;-78
2022/08/24 01:40:15;;;;;;;6.90;2.33;;;;;;;;;;5025552;28;20144;-78
2022/08/24 01:42:45;;;;;;;4.55;2.30;;;;;;;;;;5027757;28;20029;-77
2022/08/24 01:45:11;;;;;;;6.20;2.35;;;;;;;;;;5028568;28;20142;-77
2022/08/24 01:47:36;;;;;;;7.53;3.23;;;;;;;;;;5012893;28;20045;-76
2022/08/24 01:50:02;;;;;;;4.10;2.23;;;;;;;;;;5031934;28;20029;-76
2022/08/24 01:52:27;;;;;;;11.73;2.63;;;;;;;;;;5036336;28;20096;-76
2022/08/24 01:54:53;;;;;;;4.83;2.57;;;;;;;;;;5032560;28;20147;-75
2022/08/24 01:57:19;;;;;;;5.40;2.60;;;;;;;;;;5011102;28;20017;-76
2022/08/24 01:59:44;;;;;;;8.57;2.42;;;;;;;;;;5027270;28;20038;-78
2022/08/24 02:02:15;;;;;;;12.67;2.70;;;;;;;;;;5027254;28;20033;-77
2022/08/24 02:04:40;;;;;;;8.43;2.30;;;;;;;;;;5032843;28;20022;-76
2022/08/24 02:07:07;;;;;;;5.33;2.50;;;;;;;;;;5027338;28;20548;-77
2022/08/24 02:09:32;;;;;;;6.25;2.40;;;;;;;;;;5028011;28;20116;-76
2022/08/24 02:11:59;;;;;;;8.60;2.78;;;;;;;;;;5027678;28;20017;-76
2022/08/24 02:14:24;;;;;;;9.27;2.93;;;;;;;;;;5010459;28;20079;-79
2022/08/24 02:16:50;;;;;;;6.27;2.73;;;;;;;;;;5028531;28;20283;-77
2022/08/24 02:19:22;;;;;;;4.18;2.80;;;;;;;;;;5026977;28;20025;-77
2022/08/24 02:21:47;;;;;;;7.38;2.60;;;;;;;;;;5010650;28;20551;-75
2022/08/24 02:24:13;;;;;;;12.80;2.90;;;;;;;;;;5027132;28;20030;-76
2022/08/24 02:26:39;;;;;;;4.60;2.93;;;;;;;;;;5027059;28;20098;-76
2022/08/24 02:29:05;;;;;;;9.20;2.97;;;;;;;;;;5040307;28;20092;-77
2022/08/24 02:31:31;;;;;;;10.05;3.20;;;;;;;;;;5026907;28;20116;-78
2022/08/24 02:33:56;;;;;;;7.57;2.78;;;;;;;;;;5026831;28;20491;-77
2022/08/24 02:36:22;;;;;;;10.07;3.30;;;;;;;;;;5026762;28;20487;-76
2022/08/24 02:38:48;;;;;;;5.68;3.33;;;;;;;;;;5032211;28;20014;-76
2022/08/24 02:41:16;;;;;;;4.68;2.65;;;;;;;;;;5026469;28;20032;-77
2022/08/24 02:43:42;;;;;;;6.97;3.20;;;;;;;;;;5026978;28;20025;-76
2022/08/24 02:46:14;;;;;;;11.05;4.80;;;;;;;;;;5026467;28;20026;-77
2022/08/24 02:48:40;;;;;;;10.73;3.80;;;;;;;;;;5028264;28;20033;-77
2022/08/24 02:51:05;;;;;;;6.07;3.22;;;;;;;;;;5018133;28;20024;-77
2022/08/24 02:53:31;;;;;;;7.23;3.87;;;;;;;;;;5026692;28;20041;-77
2022/08/24 02:55:56;;;;;;;9.53;4.53;;;;;;;;;;5026696;28;20029;-76
2022/08/24 02:58:21;;;;;;;7.93;3.63;;;;;;;;;;5026407;28;20056;-76
2022/08/24 03:00:47;;;;;;;8.35;4.35;;;;;;;;;;5009764;28;20066;-76
2022/08/24 03:03:16;;;;;;;9.23;5.47;;;;;;;;;;5036768;28;20029;-78
2022/08/24 03:05:41;;;;;;;11.48;4.80;;;;;;;;;;5026350;28;20040;-77
2022/08/24 03:08:07;;;;;;;7.27;4.33;;;;;;;;;;5027198;28;20024;-75
2022/08/24 03:10:33;;;;;;;;;;;;;;;;;;5028064;28;20260;-77
2022/08/24 03:13:00;;;;;;;13.00;3.97;;;;;;;;;;5018955;28;20304;-77
2022/08/24 03:15:25;;;;;;;12.10;4.30;;;;;;;;;;5031129;28;20013;-76
2022/08/24 03:17:51;;;;;;;8.20;4.30;;;;;;;;;;5026005;28;20135;-76
2022/08/24 03:20:18;;;;;;;10.87;5.80;;;;;;;;;;5025267;28;20029;-76
2022/08/24 03:22:43;;;;;;;16.80;6.50;;;;;;;;;;5025776;28;20108;-78
2022/08/24 03:25:09;;;;;;;9.17;5.40;;;;;;;;;;5025961;28;20168;-77
2022/08/24 03:27:35;;;;;;;10.60;4.82;;;;;;;;;;5012146;28;20117;-78
2022/08/24 03:30:00;;;;;;;8.32;4.55;;;;;;;;;;5023400;28;20112;-77
2022/08/24 03:32:26;;;;;;;8.67;5.70;;;;;;;;;;5028075;28;20030;-77
2022/08/24 03:34:53;;;;;;;6.87;4.50;;;;;;;;;;5018850;28;20029;-75
2022/08/24 03:37:19;;;;;;;10.23;5.07;;;;;;;;;;5009201;28;20029;-77
2022/08/24 03:39:46;;;;;;;8.15;5.35;;;;;;;;;;5026611;28;20482;-77
2022/08/24 03:42:12;;;;;;;9.43;5.15;;;;;;;;;;5009437;28;20029;-78
2022/08/24 03:44:37;;;;;;;15.63;5.70;;;;;;;;;;5033335;28;20040;-78
2022/08/24 03:47:03;;;;;;;10.27;5.53;;;;;;;;;;5006693;28;20036;-77
2022/08/24 03:49:29;;;;;;;9.35;5.40;;;;;;;;;;5014370;28;20025;-76
2022/08/24 03:51:55;;;;;;;9.70;5.13;;;;;;;;;;5023533;28;20095;-76
2022/08/24 03:54:21;;;;;;;10.05;6.05;;;;;;;;;;5026629;28;20022;-77
2022/08/24 03:56:47;;;;;;;11.83;6.30;;;;;;;;;;5017259;28;20397;-76
2022/08/24 03:59:13;;;;;;;13.57;6.07;;;;;;;;;;5030478;28;20017;-76
2022/08/24 04:01:41;;;;;;;7.93;5.55;;;;;;;;;;5037076;28;20029;-78
2022/08/24 04:04:07;;;;;;;10.30;6.35;;;;;;;;;;5018855;28;20531;-77
2022/08/24 04:06:34;;;;;;;12.23;6.05;;;;;;;;;;5027516;28;20029;-75
2022/08/24 04:08:59;;;;;;;18.90;7.73;;;;;;;;;;5027666;28;20029;-76
2022/08/24 04:11:26;;;;;;;10.60;6.33;;;;;;;;;;5032520;28;20026;-76
2022/08/24 04:13:55;;;;;;;12.73;5.72;;;;;;;;;;5022483;28;20163;-77
2022/08/24 04:16:21;;;;;;;14.55;6.40;;;;;;;;;;5026526;28;20075;-76
2022/08/24 04:18:51;;;;;;;13.23;6.32;;;;;;;;;;5031763;28;20030;-77
2022/08/24 04:21:18;;;;;;;;;;;;;;;;;;5027031;28;20517;-77
2022/08/24 04:23:43;;;;;;;;;;;;;;;;;;5029330;28;19909;-76
2022/08/24 04:26:09;;;;;;;10.13;5.77;;;;;;;;;;5027011;28;19921;-76
2022/08/24 04:28:34;;;;;;;12.80;7.73;;;;;;;;;;5032306;28;20103;-75
2022/08/24 04:31:03;;;;;;;14.60;7.13;;;;;;;;;;5018228;28;20052;-76
2022/08/24 04:33:37;;;;;;;16.35;7.90;;;;;;;;;;5027245;28;20662;-77
2022/08/24 04:36:05;;;;;;;15.63;7.18;;;;;;;;;;5031820;28;20486;-76
2022/08/24 04:38:31;;;;;;;16.55;7.30;;;;;;;;;;5019416;28;20108;-76
2022/08/24 04:41:31;;;;;;;15.02;8.35;;;;;;;;;;5025966;28;20387;-78
2022/08/24 04:43:58;;;;;;;14.45;7.40;;;;;;;;;;5014550;28;20020;-75
2022/08/24 04:46:23;;;;;;;12.88;7.63;;;;;;;;;;5009844;28;20662;-76
2022/08/24 04:48:49;;;;;;;11.03;6.37;;;;;;;;;;5024694;28;20551;-76
2022/08/24 04:51:16;;;;;;;12.77;7.90;;;;;;;;;;5024187;28;20083;-76
2022/08/24 04:53:42;;;;;;;14.77;7.13;;;;;;;;;;5016318;28;20137;-77
2022/08/24 04:56:10;;;;;;;12.18;7.03;;;;;;;;;;5016341;28;20100;-75
2022/08/24 04:58:35;;;;;;;13.98;8.20;;;;;;;;;;5024841;28;20029;-76
2022/08/24 05:01:05;;;;;;;12.77;7.17;;;;;;;;;;5024173;28;20032;-76
2022/08/24 05:03:30;;;;;;;14.82;7.95;;;;;;;;;;5009003;28;20026;-77
2022/08/24 05:05:56;;;;;;;12.80;8.10;;;;;;;;;;5028500;28;20563;-76
2022/08/24 05:08:22;;;;;;;14.13;7.13;;;;;;;;;;5023750;28;20475;-77
2022/08/24 05:10:47;;;;;;;12.45;7.25;;;;;;;;;;5007832;28;20024;-76
2022/08/24 05:13:14;;;;;;;16.75;7.93;;;;;;;;;;5016543;28;20022;-76
2022/08/24 05:15:40;;;;;;;11.32;6.20;;;;;;;;;;5024509;28;20065;-77
2022/08/24 05:18:06;;;;;;;13.32;6.80;;;;;;;;;;5024201;28;20048;-78
2022/08/24 05:20:31;;;;;;;21.48;7.70;;;;;;;;;;5025508;28;20017;-77
2022/08/24 05:22:57;;;;;;;15.98;7.22;;;;;;;;;;5032280;28;20033;-77
2022/08/24 05:25:22;;;;;;;11.27;6.07;;;;;;;;;;5033032;28;20105;-79
2022/08/24 05:27:47;;;;;;;9.37;5.97;;;;;;;;;;5028732;28;20544;-77
2022/08/24 05:30:13;;;;;;;12.33;5.87;;;;;;;;;;5026954;28;20021;-76
2022/08/24 05:32:38;;;;;;;11.77;5.93;;;;;;;;;;5024028;28;20025;-77
2022/08/24 05:35:04;;;;;;;11.17;4.70;;;;;;;;;;5007466;28;20509;-77
2022/08/24 05:37:30;;;;;;;;;;;;;;;;;;5024412;28;20033;-77
2022/08/24 05:40:05;;;;;;;7.75;3.45;;;;;;;;;;5023721;28;19925;-78
2022/08/24 05:42:32;;;;;;;7.15;4.43;;;;;;;;;;5010364;28;20048;-77
2022/08/24 05:44:57;;;;;;;14.43;4.27;;;;;;;;;;5027771;28;20075;-78
2022/08/24 05:47:23;;;;;;;10.47;4.37;;;;;;;;;;5011491;28;20619;-78
2022/08/24 05:49:51;;;;;;;6.65;4.70;;;;;;;;;;5005683;28;20799;-77
2022/08/24 05:52:17;;;;;;;8.20;3.35;;;;;;;;;;5007515;23;20089;-88
2022/08/24 05:54:43;;;;;;;7.45;3.85;;;;;;;;;;4983314;28;20041;-87
2022/08/24 05:57:09;;;;;;;9.10;3.17;;;;;;;;;;5005781;28;20030;-88
2022/08/24 05:59:48;;;;;;;9.85;4.13;;;;;;;;;;4995114;28;20026;-88
2022/08/24 06:02:17;;;;;;;6.05;3.45;;;;;;;;;;4988069;28;20038;-86
2022/08/24 06:04:42;;;;;;;;;;;;;;;;;;4990308;28;20402;-86
2022/08/24 06:07:09;;;;;;;6.80;2.70;;;;;;;;;;5000552;28;19924;-88
2022/08/24 06:09:36;;;;;;;10.05;2.50;;;;;;;;;;5002433;28;20025;-87
2022/08/24 06:12:02;;;;;;;;;;;;;;;;;;5003492;28;20491;-87
2022/08/24 06:14:27;;;;;;;10.00;3.45;;;;;;;;;;5005291;28;19916;-87
2022/08/24 06:16:56;;;;;;;10.65;3.63;;;;;;;;;;4990008;28;20030;-84
2022/08/24 06:19:23;;;;;;;7.10;2.42;;;;;;;;;;5002437;28;20025;-86
2022/08/24 06:21:50;;;;;;;8.82;3.00;;;;;;;;;;5001418;28;20038;-86
2022/08/24 06:24:16;;;;;;;6.07;2.60;;;;;;;;;;4986272;28;20018;-86
2022/08/24 06:29:27;;;;;;;6.32;2.83;;;;;;;;;;5000710;28;20033;-86
2022/08/24 06:31:58;;;;;;;8.85;2.47;;;;;;;;;;5001349;28;20798;-87
2022/08/24 06:34:24;;;;;;;5.78;2.40;;;;;;;;;;4994875;28;20080;-88
2022/08/24 06:36:51;;;;;;;;;;;;;;;;;;5005142;28;20069;-86
2022/08/24 06:39:17;;;;;;;6.05;2.10;;;;;;;;;;5002818;28;19920;-87
2022/08/24 06:41:44;;;;;;;9.10;3.28;;;;;;;;;;4997942;28;20028;-89
2022/08/24 06:44:11;;;;;;;7.30;2.20;;;;;;;;;;5003760;28;20113;-87
2022/08/24 06:46:47;;;;;;;4.72;2.40;;;;;;;;;;5006891;28;20022;-87
2022/08/24 06:49:13;;;;;;;11.93;3.33;;;;;;;;;;5008860;28;20413;-88
2022/08/24 06:51:38;;;;;;;6.28;2.25;;;;;;;;;;5005220;28;20025;-88
2022/08/24 06:54:05;;;;;;;4.10;1.92;;;;;;;;;;5003895;28;20488;-89
2022/08/24 06:56:31;;;;;;;5.20;2.33;;;;;;;;;;5003257;28;20032;-87
2022/08/24 06:58:56;;;;;;;7.63;2.70;;;;;;;;;;5003275;28;20030;-88
2022/08/24 07:01:23;;;;;;;6.30;2.00;;;;;;;;;;5003143;28;20471;-88
2022/08/24 07:03:49;;;;;;;5.45;2.00;;;;;;;;;;4988300;28;20257;-89
2022/08/24 07:06:28;;;;;;;4.32;1.67;;;;;;;;;;4987532;28;20029;-88
2022/08/24 07:08:57;;;;;;;3.05;1.60;;;;;;;;;;5001220;28;20101;-88
2022/08/24 07:11:24;;;;;;;5.43;2.28;;;;;;;;;;4997797;28;20020;-88
2022/08/24 07:13:50;;;;;;;6.83;3.67;;;;;;;;;;5014475;28;20038;-88
2022/08/24 07:16:16;;;;;;;4.00;1.90;;;;;;;;;;5005840;28;20022;-89
2022/08/24 07:18:43;;;;;;;3.22;2.22;;;;;;;;;;5005056;28;20022;-88
2022/08/24 07:21:10;;;;;;;4.60;1.65;;;;;;;;;;5001281;28;20037;-88
2022/08/24 07:23:45;;;;;;;5.22;2.30;;;;;;;;;;5005647;28;20041;-88
2022/08/24 07:26:14;;;;;;;5.63;2.22;;;;;;;;;;4990237;28;20030;-87
2022/08/24 07:28:39;;;;;;;5.03;1.88;;;;;;;;;;4985521;28;20069;-89
2022/08/24 07:31:08;;;;;;;4.00;1.70;;;;;;;;;;4987631;28;20048;-87
2022/08/24 07:33:38;;;;;;;3.50;1.80;;;;;;;;;;5000992;28;20123;-88
2022/08/24 07:36:04;;;;;;;6.45;1.70;;;;;;;;;;5000802;28;20077;-90
2022/08/24 07:38:30;;;;;;;6.68;1.92;;;;;;;;;;5012095;28;20097;-88
2022/08/24 07:40:57;;;;;;;4.97;1.80;;;;;;;;;;4984785;28;20066;-88
2022/08/24 07:43:23;;;;;;;4.07;1.92;;;;;;;;;;4976641;28;20403;-87
2022/08/24 07:45:50;;;;;;;3.97;1.95;;;;;;;;;;4999373;28;20478;-88
2022/08/24 07:48:17;;;;;;;4.28;1.83;;;;;;;;;;4998974;28;20398;-88
2022/08/24 07:50:44;;;;;;;3.22;2.00;;;;;;;;;;4998011;28;20031;-88
2022/08/24 07:53:10;;;;;;;2.40;2.20;;;;;;;;;;4996884;28;20031;-89
2022/08/24 07:55:35;;;;;;;3.25;1.90;;;;;;;;;;4985631;28;20033;-88
2022/08/24 07:58:00;;;;;;;5.03;2.00;;;;;;;;;;5002040;28;20021;-88
2022/08/24 08:00:26;;;;;;;4.95;2.17;;;;;;;;;;4982555;28;20030;-88
2022/08/24 08:02:57;;;;;;;9.13;2.17;;;;;;;;;;4981728;28;20026;-88
2022/08/24 08:05:23;;;;;;;5.17;2.00;;;;;;;;;;4997473;28;20541;-88
2022/08/24 08:07:51;;;;;;;3.55;1.55;;;;;;;;;;4981528;28;20006;-88
2022/08/24 08:10:16;;;;;;;2.95;1.58;;;;;;;;;;4998511;28;20026;-88
2022/08/24 08:12:42;;;;;;;4.20;1.60;;;;;;;;;;4993919;28;20037;-88
2022/08/24 08:15:08;;;;;;;5.13;1.73;;;;;;;;;;5000224;28;20029;-88
2022/08/24 08:17:36;;;;;;;6.93;1.80;;;;;;;;;;4997445;28;20022;-88
2022/08/24 08:20:06;;;;;;;5.50;1.88;;;;;;;;;;4997160;28;20060;-88
2022/08/24 08:25:46;;;;;;;6.15;1.73;;;;;;;;;;4995399;28;20036;-87
2022/08/24 08:28:16;;;;;;;6.70;1.90;;;;;;;;;;4979439;28;20506;-88
2022/08/24 08:30:43;;;;;;;3.70;1.90;;;;;;;;;;5019248;28;20033;-87
2022/08/24 08:33:08;;;;;;;5.43;1.65;;;;;;;;;;5003942;28;20022;-87
2022/08/24 08:35:34;;;;;;;4.20;1.80;;;;;;;;;;4999032;28;20080;-89
2022/08/24 08:37:59;;;;;;;4.30;1.53;;;;;;;;;;4997455;28;20033;-88
2022/08/24 08:40:40;;;;;;;5.38;1.38;;;;;;;;;;4999634;28;20108;-88
2022/08/24 08:43:09;;;;;;;4.57;1.33;;;;;;;;;;5000211;28;20034;-88
2022/08/24 08:45:40;;;;;;;2.25;1.67;;;;;;;;;;4994001;28;20026;-86
2022/08/24 08:48:46;;;;;;;3.03;1.50;;;;;;;;;;4998465;28;20057;-85
2022/08/24 08:51:30;;;;;;;4.60;1.70;;;;;;;;;;4999107;28;20065;-88
2022/08/24 08:54:05;;;;;;;6.15;2.25;;;;;;;;;;4980634;28;20089;-85
2022/08/24 08:56:49;;;;;;;3.92;1.60;;;;;;;;;;4976350;28;20510;-87
2022/08/24 08:59:14;;;;;;;3.20;1.67;;;;;;;;;;4981981;28;20495;-86
2022/08/24 09:01:51;;;;;;;4.90;2.22;;;;;;;;;;4996594;28;20509;-87
2022/08/24 09:04:42;;;;;;;6.15;1.52;;;;;;;;;;5000551;28;20049;-86
2022/08/24 09:07:21;;;;;;;4.55;1.58;;;;;;;;;;4999294;28;20440;-87
2022/08/24 09:10:03;;;;;;;6.63;1.70;;;;;;;;;;4981017;28;20034;-87
2022/08/24 09:12:34;;;;;;;8.00;1.92;;;;;;;;;;5004221;28;20034;-88
2022/08/24 09:15:19;;;;;;;4.60;1.92;;;;;;;;;;4997776;28;20026;-87
2022/08/24 09:17:45;;;;;;;5.70;1.40;;;;;;;;;;4980301;28;20030;-88
2022/08/24 09:20:28;;;;;;;6.83;2.17;;;;;;;;;;5004217;28;20049;-86
2022/08/24 09:23:07;;;;;;;5.82;1.48;;;;;;;;;;4999886;28;20044;-89
2022/08/24 09:25:36;;;;;;;6.07;1.75;;;;;;;;;;4994834;28;20037;-88
2022/08/24 09:28:11;;;;;;;3.20;1.73;;;;;;;;;;4987492;28;20018;-86
2022/08/24 09:30:47;;;;;;;5.65;1.90;;;;;;;;;;5005242;28;20026;-86
2022/08/24 09:33:13;;;;;;;5.60;1.77;;;;;;;;;;4999741;28;20038;-86
2022/08/24 09:35:52;;;;;;;3.60;1.97;;;;;;;;;;4994269;28;20423;-87
2022/08/24 09:38:33;;;;;;;4.38;1.58;;;;;;;;;;4996523;28;20479;-85
2022/08/24 09:41:19;;;;;;;4.97;1.77;;;;;;;;;;5002561;28;20043;-87
2022/08/24 09:43:45;;;;;;;3.70;1.52;;;;;;;;;;4999281;28;20447;-85
2022/08/24 09:46:29;;;;;;;6.77;2.03;;;;;;;;;;4998367;28;20087;-86
2022/08/24 09:48:54;;;;;;;8.05;2.03;;;;;;;;;;4997446;28;20125;-86
2022/08/24 09:51:19;;;;;;;4.20;1.90;;;;;;;;;;5013576;28;20057;-85
2022/08/24 09:54:03;;;;;;;4.53;1.67;;;;;;;;;;4999985;28;20478;-85
2022/08/24 09:56:48;;;;;;;5.40;2.05;;;;;;;;;;4986917;28;20050;-87
2022/08/24 09:59:16;;;;;;;3.65;1.88;;;;;;;;;;4979636;28;20041;-84
2022/08/24 10:02:00;;;;;;;3.63;1.67;;;;;;;;;;5002983;28;20068;-85
2022/08/24 10:04:45;;;;;;;6.70;1.73;;;;;;;;;;5004162;28;20044;-85
2022/08/24 10:07:20;;;;;;;2.72;1.65;;;;;;;;;;5004320;28;20066;-85
2022/08/24 10:09:57;;;;;;;11.05;1.98;;;;;;;;;;5001811;28;20034;-84
2022/08/24 10:12:38;;;;;;;3.70;1.40;;;;;;;;;;4995045;28;20062;-86
2022/08/24 10:15:15;;;;;;;5.32;2.03;;;;;;;;;;4983493;28;20789;-86
2022/08/24 10:17:49;;;;;;;3.83;2.00;;;;;;;;;;5003680;28;20034;-86
2022/08/24 10:20:28;;;;;;;3.90;1.65;;;;;;;;;;5008629;28;20022;-85
2022/08/24 10:23:02;;;;;;;4.22;2.08;;;;;;;;;;4998566;28;20026;-84
2022/08/24 10:25:36;;;;;;;3.42;1.70;;;;;;;;;;5002826;28;20089;-84
2022/08/24 10:28:25;;;;;;;5.18;1.55;;;;;;;;;;5009507;28;20404;-84
2022/08/24 10:30:59;;;;;;;4.22;1.90;;;;;;;;;;4995294;28;20027;-84
2022/08/24 10:33:27;;;;;;;4.63;1.73;;;;;;;;;;4991748;28;20053;-86
2022/08/24 10:36:11;;;;;;;4.50;1.83;;;;;;;;;;4997796;28;20022;-84
2022/08/24 10:41:29;;;;;;;7.43;2.30;;;;;;;;;;5002460;28;20033;-84
2022/08/24 10:44:05;;;;;;;4.20;1.92;;;;;;;;;;5004303;28;20022;-84
2022/08/24 10:46:30;;;;;;;;;;;;;;;;;;4996383;28;20026;-84
2022/08/24 10:49:02;;;;;;;5.10;1.83;;;;;;;;;;4999194;28;19909;-84
2022/08/24 10:51:41;;;;;;;3.95;1.50;;;;;;;;;;5000333;28;20030;-84
2022/08/24 10:54:10;;;;;;;6.57;1.67;;;;;;;;;;4984065;28;20035;-85
2022/08/24 10:56:49;;;;;;;4.82;2.33;;;;;;;;;;5003312;28;20029;-84
2022/08/24 10:59:27;;;;;;;4.22;1.73;;;;;;;;;;5001270;28;20026;-84
2022/08/24 11:02:00;;;;;;;2.90;1.48;;;;;;;;;;4999488;28;20137;-84
2022/08/24 11:04:28;;;;;;;3.58;1.45;;;;;;;;;;5002429;28;20030;-84
2022/08/24 11:07:05;;;;;;;7.43;2.03;;;;;;;;;;5003108;28;20060;-87
2022/08/24 11:09:44;;;;;;;6.10;2.78;;;;;;;;;;4992275;28;20030;-87
2022/08/24 11:12:35;;;;;;;5.53;1.83;;;;;;;;;;4984240;28;20130;-84
2022/08/24 11:15:04;;;;;;;6.60;1.58;;;;;;;;;;4998084;28;20109;-84
2022/08/24 11:17:31;;;;;;;5.97;1.63;;;;;;;;;;4992229;28;20026;-85
2022/08/24 11:19:58;;;;;;;2.45;1.42;;;;;;;;;;4993990;28;20038;-84
2022/08/24 11:22:26;;;;;;;6.15;1.55;;;;;;;;;;4989376;28;20081;-84
2022/08/24 11:24:54;;;;;;;4.78;1.60;;;;;;;;;;5016986;23;20050;-74
2022/08/24 11:27:32;;;;;;;3.08;1.65;;;;;;;;;;5006723;28;20025;-74
2022/08/24 11:29:59;;;;;;;3.95;1.40;;;;;;;;;;5017047;28;20419;-74
2022/08/24 11:32:47;;;;;;;5.45;2.15;;;;;;;;;;5006481;28;20108;-74
2022/08/24 11:35:18;;;;;;;3.38;1.50;;;;;;;;;;4994801;28;20554;-74
2022/08/24 11:37:43;;;;;;;2.88;1.70;;;;;;;;;;5006225;28;20765;-74
2022/08/24 11:40:09;;;;;;;5.82;1.90;;;;;;;;;;5005150;28;20026;-74
2022/08/24 11:42:43;;;;;;;4.25;1.90;;;;;;;;;;5006483;28;20033;-75
2022/08/24 11:45:08;;;;;;;6.35;2.13;;;;;;;;;;5006577;28;20088;-74
2022/08/24 11:47:42;;;;;;;4.97;1.80;;;;;;;;;;5005734;28;20479;-74
2022/08/24 11:50:16;;;;;;;4.93;1.52;;;;;;;;;;5004484;28;20026;-74
2022/08/24 11:53:00;;;;;;;6.55;1.90;;;;;;;;;;5033785;23;20085;-79
2022/08/24 11:55:32;;;;;;;4.13;1.52;;;;;;;;;;4997042;28;20036;-77
2022/08/24 11:58:20;;;;;;;5.97;1.85;;;;;;;;;;5008602;28;20041;-78
2022/08/24 12:00:54;;;;;;;6.68;2.25;;;;;;;;;;5001506;28;20103;-80
2022/08/24 12:03:32;;;;;;;6.47;1.70;;;;;;;;;;4997596;28;20103;-77
2022/08/24 12:06:02;;;;;;;4.72;2.40;;;;;;;;;;4975403;28;20034;-77
2022/08/24 12:08:53;;;;;;;7.45;1.67;;;;;;;;;;4999064;28;20113;-78
2022/08/24 12:11:31;;;;;;;4.68;1.63;;;;;;;;;;4915453;29;20481;-77
2022/08/24 12:14:07;;;;;;;6.95;1.50;;;;;;;;;;4914153;29;20128;-77
2022/08/24 12:16:35;;;;;;;8.82;2.33;;;;;;;;;;4898527;29;20043;-77
2022/08/24 12:19:20;;;;;;;8.38;1.77;;;;;;;;;;4876963;29;20146;-77
2022/08/24 12:21:46;;;;;;;;;;;;;;;;;;4896094;29;20391;-77
2022/08/24 12:24:13;;;;;;;2.40;1.70;;;;;;;;;;4912800;29;19922;-78
2022/08/24 12:26:46;;;;;;;3.63;1.65;;;;;;;;;;4915280;29;20046;-77
2022/08/24 12:29:16;;;;;;;5.30;1.77;;;;;;;;;;4914546;29;20086;-77
2022/08/24 12:31:44;;;;;;;3.78;1.95;;;;;;;;;;4916265;29;20553;-78
2022/08/24 12:34:17;;;;;;;5.40;1.80;;;;;;;;;;4884986;29;20070;-79
2022/08/24 12:37:01;;;;;;;4.30;2.20;;;;;;;;;;4916997;29;20040;-78
2022/08/24 12:39:30;;;;;;;5.53;2.00;;;;;;;;;;4902646;29;20462;-79
2022/08/24 12:42:14;;;;;;;3.97;2.38;;;;;;;;;;4914148;29;20043;-77
2022/08/24 12:44:44;;;;;;;5.95;2.10;;;;;;;;;;4913742;29;20044;-77
2022/08/24 12:47:10;;;;;;;3.33;2.10;;;;;;;;;;4914457;28;20039;-77
2022/08/24 12:49:45;;;;;;;5.75;2.00;;;;;;;;;;5014898;28;20455;-77
2022/08/24 12:52:11;;;;;;;;;;;;;;;;;;5014474;28;20437;-77
2022/08/24 12:54:36;;;;;;;4.03;2.10;;;;;;;;;;4997338;28;19909;-78
2022/08/24 12:57:14;;;;;;;5.67;2.03;;;;;;;;;;5012788;28;20029;-77
2022/08/24 12:59:44;;;;;;;4.10;2.33;;;;;;;;;;4994163;28;20128;-79
2022/08/24 13:02:09;;;;;;;4.30;1.90;;;;;;;;;;5018752;28;20095;-77
2022/08/24 13:04:50;;;;;;;5.23;2.17;;;;;;;;;;4984831;28;20544;-77
2022/08/24 13:07:15;;;;;;;4.00;1.98;;;;;;;;;;5018619;28;20269;-78
2022/08/24 13:09:43;;;;;;;5.17;2.30;;;;;;;;;;4982737;28;20386;-78
2022/08/24 13:12:27;;;;;;;6.30;2.05;;;;;;;;;;5001365;28;20026;-79
2022/08/24 13:14:53;;;;;;;4.45;2.30;;;;;;;;;;4994760;28;20030;-77
2022/08/24 13:17:18;;;;;;;6.20;2.40;;;;;;;;;;5018254;28;20493;-77
2022/08/24 13:19:44;;;;;;;6.10;2.13;;;;;;;;;;5016840;28;20044;-77
2022/08/24 13:22:10;;;;;;;4.82;2.05;;;;;;;;;;5001477;28;20276;-78
2022/08/24 13:24:39;;;;;;;5.57;2.40;;;;;;;;;;5020112;28;20021;-79
2022/08/24 13:27:10;;;;;;;7.05;2.58;;;;;;;;;;5000815;28;20022;-78
2022/08/24 13:29:36;;;;;;;5.90;1.65;;;;;;;;;;5019908;28;20309;-78
2022/08/24 13:32:01;;;;;;;;;;;;;;;;;;5000623;28;20503;-77
2022/08/24 13:34:36;;;;;;;6.03;2.00;;;;;;;;;;5003166;28;19909;-77
2022/08/24 13:37:13;;;;;;;7.18;2.30;;;;;;;;;;5000083;28;20478;-78
2022/08/24 13:39:57;;;;;;;3.97;2.10;;;;;;;;;;5014327;28;20524;-78
2022/08/24 13:42:26;;;;;;;4.75;1.90;;;;;;;;;;4984384;28;20443;-77
2022/08/24 13:44:54;;;;;;;2.92;1.88;;;;;;;;;;4993515;28;20114;-77
2022/08/24 13:47:27;;;;;;;4.28;2.15;;;;;;;;;;5020028;28;20092;-78
2022/08/24 13:50:04;;;;;;;6.93;2.72;;;;;;;;;;4994751;28;20040;-78
2022/08/24 13:52:32;;;;;;;6.55;2.33;;;;;;;;;;5014511;28;20581;-78
2022/08/24 13:55:16;;;;;;;6.35;2.17;;;;;;;;;;5017311;28;20018;-78
2022/08/24 13:58:05;;;;;;;6.60;2.05;;;;;;;;;;5014401;28;20182;-77
2022/08/24 14:00:42;;;;;;;3.70;2.15;;;;;;;;;;4993666;28;20038;-80
2022/08/24 14:03:08;;;;;;;6.60;1.80;;;;;;;;;;4999758;28;20478;-78
2022/08/24 14:05:46;;;;;;;6.47;2.10;;;;;;;;;;5000946;28;20389;-77
2022/08/24 14:08:28;;;;;;;6.30;2.33;;;;;;;;;;5000371;28;20602;-77
2022/08/24 14:11:03;;;;;;;5.95;2.50;;;;;;;;;;4993753;28;20061;-78
2022/08/24 14:13:28;;;;;;;3.80;2.05;;;;;;;;;;5019898;28;20097;-79
2022/08/24 14:17:50;;;;;;;4.47;2.17;;;;;;;;;;4997169;28;20129;-76
2022/08/24 14:18:57;;;;;;;6.05;2.25;;;;;;;;;;4995211;28;20065;-77
2022/08/24 14:21:31;;;;;;;10.02;2.70;;;;;;;;;;5019186;28;20530;-78
2022/08/24 14:24:06;;;;;;;3.40;2.00;;;;;;;;;;4994951;28;20029;-77
2022/08/24 14:26:32;;;;;;;4.28;2.88;;;;;;;;;;5005347;28;20119;-77
2022/08/24 14:29:18;;;;;;;7.40;2.40;;;;;;;;;;4999058;28;20157;-78
2022/08/24 14:31:57;;;;;;;4.65;1.80;;;;;;;;;;4981271;28;20398;-78
2022/08/24 14:34:22;;;;;;;4.82;2.28;;;;;;;;;;5019142;28;20085;-78
2022/08/24 14:37:00;;;;;;;7.75;2.42;;;;;;;;;;4998247;28;20517;-77
2022/08/24 14:39:32;;;;;;;8.65;2.15;;;;;;;;;;4999075;28;20053;-77
2022/08/24 14:42:10;;;;;;;4.93;2.63;;;;;;;;;;4992520;28;20084;-78
2022/08/24 14:44:56;;;;;;;8.70;2.10;;;;;;;;;;5012286;28;20029;-77
2022/08/24 14:47:21;;;;;;;;;;;;;;;;;;4985226;28;20069;-77
2022/08/24 14:49:52;;;;;;;3.20;1.90;;;;;;;;;;5014029;28;20204;-76
2022/08/24 14:52:21;;;;;;;5.43;2.33;;;;;;;;;;4999368;28;20288;-78
2022/08/24 14:55:02;;;;;;;10.25;3.20;;;;;;;;;;5014673;28;20065;-77
2022/08/24 14:57:30;;;;;;;5.18;1.92;;;;;;;;;;5000950;28;20063;-78
2022/08/24 14:59:57;;;;;;;5.57;1.75;;;;;;;;;;4998145;28;20056;-78
2022/08/24 15:02:28;;;;;;;7.13;2.50;;;;;;;;;;5000792;28;20386;-77
2022/08/24 15:05:12;;;;;;;4.80;1.75;;;;;;;;;;4993620;28;20021;-78
2022/08/24 15:07:38;;;;;;;9.63;2.65;;;;;;;;;;4989961;28;20087;-78
2022/08/24 15:10:10;;;;;;;4.38;1.95;;;;;;;;;;4988767;28;20024;-76
2022/08/24 15:12:43;;;;;;;17.13;2.40;;;;;;;;;;4997717;28;20116;-77
2022/08/24 15:15:09;;;;;;;4.70;2.85;;;;;;;;;;4998275;28;20041;-76